createdAt,value
2018-06-20T00:00:04.251Z,8.00
2018-06-20T00:02:32.424Z,7.05
2018-06-20T00:05:00.590Z,6.17
2018-06-20T00:07:28.823Z,6.87
2018-06-20T00:09:57.039Z,5.97
2018-06-20T00:12:25.340Z,6.92
2018-06-20T00:14:53.432Z,7.00
2018-06-20T00:17:21.579Z,6.72
2018-06-20T00:19:49.659Z,6.80
2018-06-20T00:22:17.696Z,6.60
2018-06-20T00:24:45.560Z,8.70
2018-06-20T00:27:13.337Z,6.42
2018-06-20T00:29:41.137Z,7.53
2018-06-20T00:32:09.185Z,7.33
2018-06-20T00:34:37.272Z,7.62
2018-06-20T00:37:05.332Z,7.70
2018-06-20T00:39:33.544Z,7.00
2018-06-20T00:42:01.725Z,6.50
2018-06-20T00:44:29.754Z,6.72
2018-06-20T00:46:58.113Z,6.67
2018-06-20T00:49:26.101Z,7.60
2018-06-20T00:51:54.403Z,6.07
2018-06-20T00:54:22.567Z,7.42
2018-06-20T00:56:50.662Z,6.80
2018-06-20T00:59:18.709Z,7.30
2018-06-20T01:01:46.810Z,7.40
2018-06-20T01:04:14.955Z,8.10
2018-06-20T01:06:43.138Z,6.55
2018-06-20T01:09:11.391Z,6.97
2018-06-20T01:11:39.534Z,7.40
2018-06-20T01:14:07.690Z,7.30
2018-06-20T01:16:35.744Z,6.20
2018-06-20T01:19:03.931Z,7.70
2018-06-20T01:21:32.086Z,7.33
2018-06-20T01:24:00.177Z,6.55
2018-06-20T01:26:28.350Z,8.20
2018-06-20T01:28:56.514Z,7.80
2018-06-20T01:31:24.567Z,9.57
2018-06-20T01:33:52.367Z,9.25
2018-06-20T01:36:20.519Z,10.90
2018-06-20T01:38:48.606Z,9.55
2018-06-20T01:41:16.680Z,9.43
2018-06-20T01:43:44.740Z,10.37
2018-06-20T01:46:13.052Z,10.53
2018-06-20T01:48:41.192Z,11.05
2018-06-20T01:51:09.280Z,9.43
2018-06-20T01:53:37.358Z,10.13
2018-06-20T01:56:05.431Z,8.93
2018-06-20T01:58:33.471Z,8.23
2018-06-20T02:01:01.261Z,8.85
2018-06-20T02:03:29.524Z,8.10
2018-06-20T02:05:57.592Z,8.10
2018-06-20T02:08:25.368Z,7.40
2018-06-20T02:10:53.457Z,7.60
2018-06-20T02:13:21.734Z,8.45
2018-06-20T02:15:49.786Z,10.00
2018-06-20T02:18:17.894Z,8.28
2018-06-20T02:20:45.955Z,8.65
2018-06-20T02:23:14.019Z,8.98
2018-06-20T02:25:42.293Z,9.10
2018-06-20T02:28:10.492Z,7.50
2018-06-20T02:30:38.528Z,7.93
2018-06-20T02:33:06.640Z,8.08
2018-06-20T02:35:34.670Z,7.60
2018-06-20T02:38:02.454Z,7.67
2018-06-20T02:40:30.647Z,9.05
2018-06-20T02:42:58.709Z,9.17
2018-06-20T02:45:26.812Z,9.25
2018-06-20T02:47:58.243Z,10.70
2018-06-20T02:50:26.516Z,11.05
2018-06-20T02:52:54.684Z,11.40
2018-06-20T02:55:22.778Z,11.07
2018-06-20T02:57:50.934Z,10.60
2018-06-20T03:00:19.028Z,13.53
2018-06-20T03:02:50.123Z,13.20
2018-06-20T03:05:18.326Z,13.13
2018-06-20T03:07:46.504Z,13.30
2018-06-20T03:10:14.601Z,14.68
2018-06-20T03:12:42.712Z,14.83
2018-06-20T03:15:10.737Z,16.07
2018-06-20T03:17:38.787Z,16.15
2018-06-20T03:20:06.950Z,16.53
2018-06-20T03:22:34.741Z,13.18
2018-06-20T03:25:02.791Z,13.83
2018-06-20T03:27:30.891Z,12.60
2018-06-20T03:29:59.068Z,11.78
2018-06-20T03:32:27.138Z,10.80
2018-06-20T03:34:55.187Z,10.65
2018-06-20T03:37:23.194Z,11.10
2018-06-20T03:39:51.601Z,11.73
2018-06-20T03:42:19.612Z,10.05
2018-06-20T03:44:47.815Z,9.70
2018-06-20T03:47:15.868Z,9.83
2018-06-20T03:49:44.061Z,9.58
2018-06-20T03:52:12.291Z,11.05
2018-06-20T03:54:40.324Z,14.60
2018-06-20T03:57:08.683Z,14.25
2018-06-20T03:59:36.761Z,14.85
2018-06-20T04:02:05.015Z,16.65
2018-06-20T04:04:33.151Z,14.63
2018-06-20T04:07:01.387Z,13.65
2018-06-20T04:09:29.756Z,12.47
2018-06-20T04:11:57.941Z,12.40
2018-06-20T04:14:26.002Z,10.40
2018-06-20T04:16:54.195Z,10.82
2018-06-20T04:19:22.338Z,10.60
2018-06-20T04:21:50.330Z,10.50
2018-06-20T04:24:18.403Z,11.10
2018-06-20T04:26:46.475Z,11.45
2018-06-20T04:29:14.557Z,10.50
2018-06-20T04:31:42.604Z,10.60
2018-06-20T04:34:10.385Z,10.70
2018-06-20T04:36:38.631Z,11.28
2018-06-20T04:39:08.969Z,10.90
2018-06-20T04:41:36.774Z,10.20
2018-06-20T04:44:04.811Z,11.28
2018-06-20T04:46:32.642Z,10.20
2018-06-20T04:49:00.652Z,10.95
2018-06-20T04:51:28.716Z,11.30
2018-06-20T04:53:56.523Z,11.28
2018-06-20T04:56:24.588Z,10.43
2018-06-20T04:58:52.856Z,10.10
2018-06-20T05:01:20.949Z,11.35
2018-06-20T05:03:49.004Z,11.43
2018-06-20T05:06:17.041Z,10.60
2018-06-20T05:08:45.036Z,10.40
2018-06-20T05:11:13.229Z,11.10
2018-06-20T05:13:41.462Z,11.00
2018-06-20T05:16:09.645Z,10.43
2018-06-20T05:18:37.756Z,10.40
2018-06-20T05:21:05.932Z,11.50
2018-06-20T05:23:34.095Z,10.07
2018-06-20T05:26:02.208Z,10.25
2018-06-20T05:28:30.266Z,10.10
2018-06-20T05:30:58.324Z,10.05
2018-06-20T05:33:26.407Z,10.08
2018-06-20T05:35:54.561Z,9.90
2018-06-20T05:38:22.648Z,10.60
2018-06-20T05:40:50.891Z,9.80
2018-06-20T05:43:18.694Z,9.43
2018-06-20T05:45:46.856Z,10.80
2018-06-20T05:48:14.956Z,10.72
2018-06-20T05:50:43.038Z,10.43
2018-06-20T05:53:11.186Z,10.10
2018-06-20T05:55:39.268Z,10.40
2018-06-20T05:58:07.308Z,10.78
2018-06-20T06:00:35.223Z,10.60
2018-06-20T06:03:03.278Z,11.18
2018-06-20T06:05:31.331Z,10.78
2018-06-20T06:08:05.279Z,11.05
2018-06-20T06:10:33.356Z,10.75
2018-06-20T06:13:01.483Z,11.08
2018-06-20T06:15:29.371Z,11.30
2018-06-20T06:17:57.548Z,10.90
2018-06-20T06:20:25.612Z,12.78
2018-06-20T06:22:53.712Z,11.60
2018-06-20T06:25:22.060Z,11.40
2018-06-20T06:27:49.943Z,11.40
2018-06-20T06:30:18.116Z,11.43
2018-06-20T06:32:46.230Z,11.65
2018-06-20T06:35:14.376Z,10.90
2018-06-20T06:37:42.697Z,11.97
2018-06-20T06:40:10.692Z,11.73
2018-06-20T06:42:38.546Z,10.00
2018-06-20T06:45:06.674Z,11.08
2018-06-20T06:47:34.716Z,9.45
2018-06-20T06:50:02.846Z,10.08
2018-06-20T06:52:30.890Z,9.70
2018-06-20T06:54:58.933Z,10.32
2018-06-20T06:57:26.729Z,10.88
2018-06-20T06:59:54.989Z,11.28
2018-06-20T07:02:23.177Z,11.65
2018-06-20T07:04:51.328Z,11.50
2018-06-20T07:07:19.434Z,12.10
2018-06-20T07:09:47.468Z,13.05
2018-06-20T07:12:15.276Z,13.38
2018-06-20T07:14:43.326Z,12.70
2018-06-20T07:17:11.544Z,12.80
2018-06-20T07:19:39.600Z,12.25
2018-06-20T07:22:07.645Z,13.20
2018-06-20T07:24:35.836Z,13.68
2018-06-20T07:27:03.794Z,12.25
2018-06-20T07:29:31.997Z,11.50
2018-06-20T07:32:00.067Z,11.40
2018-06-20T07:34:28.258Z,10.20
2018-06-20T07:36:56.324Z,11.53
2018-06-20T07:39:24.481Z,10.90
2018-06-20T07:41:52.768Z,10.98
2018-06-20T07:44:20.820Z,10.90
2018-06-20T07:46:49.010Z,10.10
2018-06-20T07:49:17.092Z,9.73
2018-06-20T07:51:45.130Z,8.90
2018-06-20T07:54:13.050Z,8.10
2018-06-20T07:56:41.167Z,11.57
2018-06-20T07:59:14.892Z,10.20
2018-06-20T08:01:59.848Z,6.50
2018-06-20T08:04:33.275Z,6.10
2018-06-20T08:07:06.654Z,5.08
2018-06-20T08:09:40.224Z,5.50
2018-06-20T08:12:13.702Z,4.75
2018-06-20T08:14:47.301Z,5.42
2018-06-20T08:17:25.591Z,3.90
2018-06-20T08:19:56.624Z,4.87
2018-06-20T08:22:24.778Z,3.52
2018-06-20T08:25:02.396Z,5.27
2018-06-20T08:27:31.787Z,4.50
2018-06-20T08:30:01.257Z,5.53
2018-06-20T08:32:29.478Z,4.65
2018-06-20T08:37:37.729Z,4.30
2018-06-20T08:40:05.779Z,4.40
2018-06-20T08:42:33.997Z,4.30
2018-06-20T08:45:01.943Z,4.70
2018-06-20T08:47:29.991Z,4.22
2018-06-20T08:49:58.079Z,4.50
2018-06-20T08:52:26.135Z,5.20
2018-06-20T08:54:54.223Z,5.12
2018-06-20T08:57:22.400Z,4.70
2018-06-20T08:59:50.589Z,4.40
2018-06-20T09:02:19.547Z,5.10
2018-06-20T09:04:53.059Z,4.15
2018-06-20T09:07:26.664Z,5.10
2018-06-20T09:10:00.086Z,4.47
2018-06-20T09:12:33.546Z,8.68
2018-06-20T09:16:10.669Z,4.83
2018-06-20T09:19:48.101Z,7.47
2018-06-20T09:22:17.277Z,3.75
2018-06-20T09:24:45.425Z,6.12
2018-06-20T09:27:13.779Z,4.30
2018-06-20T09:29:41.816Z,4.33
2018-06-20T09:32:10.044Z,3.97
2018-06-20T09:34:38.365Z,3.77
2018-06-20T09:37:06.444Z,2.60
2018-06-20T09:39:34.500Z,3.90
2018-06-20T09:42:02.881Z,14.67
2018-06-20T09:44:30.929Z,3.30
2018-06-20T09:46:59.282Z,6.50
2018-06-20T09:49:27.274Z,3.03
2018-06-20T09:51:55.483Z,2.77
2018-06-20T09:54:23.741Z,2.87
2018-06-20T09:56:51.719Z,3.37
2018-06-20T09:59:25.233Z,5.30
2018-06-20T10:01:58.880Z,3.30
2018-06-20T10:04:32.357Z,2.60
2018-06-20T10:07:05.823Z,3.20
2018-06-20T10:09:39.217Z,3.90
2018-06-20T10:12:10.635Z,5.40
2018-06-20T10:14:38.644Z,2.57
2018-06-20T10:17:06.800Z,4.33
2018-06-20T10:19:34.590Z,4.47
2018-06-20T10:22:02.768Z,2.77
2018-06-20T10:24:30.819Z,3.40
2018-06-20T10:26:59.019Z,2.30
2018-06-20T10:29:27.068Z,2.70
2018-06-20T10:31:55.159Z,3.33
2018-06-20T10:34:23.340Z,3.00
2018-06-20T10:36:51.383Z,2.77
2018-06-20T10:39:19.296Z,3.60
2018-06-20T10:41:47.352Z,4.53
2018-06-20T10:44:16.334Z,3.80
2018-06-20T10:46:50.176Z,4.83
2018-06-20T10:49:19.176Z,3.80
2018-06-20T10:51:47.244Z,3.20
2018-06-20T10:54:15.314Z,2.50
2018-06-20T10:57:46.714Z,3.30
2018-06-20T11:00:20.062Z,3.40
2018-06-20T11:02:53.568Z,3.33
2018-06-20T11:05:27.061Z,5.67
2018-06-20T11:08:00.524Z,3.00
2018-06-20T11:10:33.598Z,3.43
2018-06-20T11:13:04.252Z,3.13
2018-06-20T11:15:32.263Z,3.27
2018-06-20T11:18:00.289Z,3.87
2018-06-20T11:20:33.618Z,3.23
2018-06-20T11:23:01.815Z,2.80
2018-06-20T11:25:29.740Z,2.87
2018-06-20T11:27:58.038Z,3.13
2018-06-20T11:30:26.084Z,2.63
2018-06-20T11:32:54.086Z,2.70
2018-06-20T11:35:22.447Z,2.83
2018-06-20T11:37:50.793Z,2.70
2018-06-20T11:40:18.788Z,2.50
2018-06-20T11:42:46.570Z,3.50
2018-06-20T11:45:14.732Z,3.00
2018-06-20T11:47:44.752Z,2.67
2018-06-20T11:50:13.567Z,3.37
2018-06-20T11:52:47.198Z,2.83
2018-06-20T11:55:20.699Z,5.33
2018-06-20T11:57:48.711Z,3.43
2018-06-20T12:00:22.006Z,3.37
2018-06-20T12:02:55.347Z,3.50
2018-06-20T12:05:28.850Z,3.90
2018-06-20T12:08:02.316Z,3.73
2018-06-20T12:10:35.887Z,4.37
2018-06-20T12:13:09.215Z,3.30
2018-06-20T12:15:42.805Z,3.17
2018-06-20T12:18:16.122Z,3.37
2018-06-20T12:20:49.650Z,3.40
2018-06-20T12:23:23.147Z,3.83
2018-06-20T12:25:56.786Z,4.17
2018-06-20T12:28:30.501Z,3.47
2018-06-20T12:31:04.098Z,3.53
2018-06-20T12:33:37.636Z,3.47
2018-06-20T12:36:11.755Z,3.07
2018-06-20T12:38:45.398Z,3.40
2018-06-20T12:41:18.828Z,4.07
2018-06-20T12:43:52.214Z,3.20
2018-06-20T12:46:24.084Z,2.67
2018-06-20T12:48:52.099Z,3.20
2018-06-20T12:51:20.333Z,3.30
2018-06-20T12:53:48.252Z,5.23
2018-06-20T12:56:16.394Z,2.93
2018-06-20T12:58:44.488Z,3.70
2018-06-20T13:01:12.558Z,2.63
2018-06-20T13:03:40.852Z,3.03
2018-06-20T13:06:08.912Z,3.00
2018-06-20T13:08:38.004Z,3.27
2018-06-20T13:11:06.180Z,3.27
2018-06-20T13:13:34.263Z,2.90
2018-06-20T13:16:02.610Z,3.07
2018-06-20T13:18:30.398Z,3.53
2018-06-20T13:20:58.454Z,2.80
2018-06-20T13:23:26.238Z,3.53
2018-06-20T13:25:54.395Z,5.10
2018-06-20T13:28:23.970Z,4.13
2018-06-20T13:30:58.030Z,3.67
2018-06-20T13:33:31.646Z,3.30
2018-06-20T13:36:05.216Z,3.20
2018-06-20T13:38:38.612Z,3.00
2018-06-20T13:41:12.190Z,3.57
2018-06-20T13:43:45.780Z,3.03
2018-06-20T13:46:19.143Z,3.30
2018-06-20T13:48:47.215Z,2.73
2018-06-20T13:51:15.275Z,3.77
2018-06-20T13:53:43.445Z,3.10
2018-06-20T13:56:11.263Z,3.97
2018-06-20T13:58:39.411Z,3.13
2018-06-20T14:01:07.449Z,3.10
2018-06-20T14:03:35.250Z,4.83
2018-06-20T14:06:03.318Z,3.77
2018-06-20T14:08:31.404Z,4.37
2018-06-20T14:10:59.527Z,3.13
2018-06-20T14:13:27.642Z,3.60
2018-06-20T14:15:55.696Z,2.63
2018-06-20T14:18:23.884Z,4.30
2018-06-20T14:20:57.667Z,3.37
2018-06-20T14:23:25.562Z,2.70
2018-06-20T14:25:53.642Z,3.00
2018-06-20T14:28:21.703Z,2.97
2018-06-20T14:30:55.167Z,2.63
2018-06-20T14:33:28.820Z,2.90
2018-06-20T14:36:02.261Z,2.90
2018-06-20T14:38:35.745Z,2.57
2018-06-20T14:41:09.136Z,2.60
2018-06-20T14:43:42.739Z,2.67
2018-06-20T14:46:15.538Z,4.23
2018-06-20T14:48:43.942Z,3.33
2018-06-20T14:51:11.970Z,2.40
2018-06-20T14:53:40.015Z,2.30
2018-06-20T14:56:08.095Z,1.97
2018-06-20T14:58:36.123Z,3.30
2018-06-20T15:01:04.179Z,2.30
2018-06-20T15:03:32.216Z,2.40
2018-06-20T15:06:00.268Z,2.83
2018-06-20T15:08:28.051Z,2.57
2018-06-20T15:10:56.128Z,3.67
2018-06-20T15:13:24.221Z,2.20
2018-06-20T15:15:52.264Z,2.80
2018-06-20T15:18:20.451Z,2.00
2018-06-20T15:20:48.624Z,3.10
2018-06-20T15:23:16.906Z,3.43
2018-06-20T15:25:50.496Z,2.83
2018-06-20T15:28:23.895Z,2.67
2018-06-20T15:30:57.635Z,2.80
2018-06-20T15:33:31.136Z,5.20
2018-06-20T15:36:04.724Z,2.60
2018-06-20T15:38:32.972Z,4.73
2018-06-20T15:41:01.051Z,3.73
2018-06-20T15:43:29.137Z,2.93
2018-06-20T15:46:01.955Z,2.60
2018-06-20T15:48:30.296Z,4.40
2018-06-20T15:50:58.549Z,2.40
2018-06-20T15:53:26.350Z,2.97
2018-06-20T15:55:54.540Z,3.03
2018-06-20T15:58:22.578Z,3.30
2018-06-20T16:00:50.971Z,3.30
2018-06-20T16:03:19.680Z,2.70
2018-06-20T16:05:47.730Z,2.80
2018-06-20T16:08:15.991Z,2.60
2018-06-20T16:10:43.769Z,2.90
2018-06-20T16:13:11.954Z,2.93
2018-06-20T16:15:40.028Z,3.20
2018-06-20T16:18:08.204Z,3.10
2018-06-20T16:20:41.747Z,4.10
2018-06-20T16:23:15.191Z,2.90
2018-06-20T16:25:48.760Z,2.93
2018-06-20T16:28:22.251Z,3.10
2018-06-20T16:30:50.367Z,3.17
2018-06-20T16:33:18.145Z,2.80
2018-06-20T16:35:46.222Z,5.10
2018-06-20T16:38:14.264Z,3.10
2018-06-20T16:40:42.056Z,2.97
2018-06-20T16:43:10.327Z,4.77
2018-06-20T16:45:38.340Z,3.20
2018-06-20T16:48:06.485Z,2.90
2018-06-20T16:50:34.536Z,3.00
2018-06-20T16:53:02.433Z,3.43
2018-06-20T16:55:30.512Z,3.53
2018-06-20T16:57:58.672Z,2.90
2018-06-20T17:00:26.767Z,5.30
2018-06-20T17:02:54.795Z,4.20
2018-06-20T17:05:22.577Z,4.50
2018-06-20T17:07:50.687Z,3.07
2018-06-20T17:10:20.341Z,3.30
2018-06-20T17:12:54.078Z,2.90
2018-06-20T17:15:30.824Z,3.60
2018-06-20T17:18:05.313Z,4.73
2018-06-20T17:20:38.914Z,5.13
2018-06-20T17:23:12.488Z,4.23
2018-06-20T17:25:40.614Z,3.60
2018-06-20T17:28:08.619Z,3.30
2018-06-20T17:30:36.691Z,3.73
2018-06-20T17:33:05.001Z,3.50
2018-06-20T17:35:33.478Z,3.67
2018-06-20T17:38:02.033Z,3.07
2018-06-20T17:40:30.549Z,3.60
2018-06-20T17:42:58.837Z,3.20
2018-06-20T17:45:27.620Z,2.83
2018-06-20T17:47:55.668Z,2.60
2018-06-20T17:50:23.719Z,2.60
2018-06-20T17:52:51.529Z,2.77
2018-06-20T17:55:19.555Z,3.20
2018-06-20T17:57:47.372Z,2.70
2018-06-20T18:00:15.401Z,3.40
2018-06-20T18:02:43.213Z,2.70
2018-06-20T18:05:16.869Z,2.60
2018-06-20T18:07:50.584Z,3.67
2018-06-20T18:10:24.042Z,3.30
2018-06-20T18:12:54.901Z,2.73
2018-06-20T18:15:32.019Z,2.57
2018-06-20T18:18:01.393Z,3.00
2018-06-20T18:20:34.198Z,3.00
2018-06-20T18:23:04.132Z,2.70
2018-06-20T18:25:32.680Z,2.40
2018-06-20T18:28:02.391Z,2.53
2018-06-20T18:30:32.432Z,2.70
2018-06-20T18:33:02.054Z,2.77
2018-06-20T18:35:30.135Z,4.53
2018-06-20T18:37:59.876Z,2.90
2018-06-20T18:40:31.554Z,4.30
2018-06-20T18:43:02.426Z,3.43
2018-06-20T18:45:32.840Z,3.13
2018-06-20T18:48:08.483Z,3.33
2018-06-20T18:50:38.261Z,2.63
2018-06-20T19:00:48.181Z,4.12
2018-06-20T19:03:21.839Z,4.43
2018-06-20T19:05:55.290Z,4.70
2018-06-20T19:18:49.304Z,3.53
2018-06-20T19:21:17.365Z,6.23
2018-06-20T19:23:45.449Z,4.80
2018-06-20T19:26:13.494Z,5.30
2018-06-20T19:28:41.392Z,4.17
2018-06-20T19:31:09.432Z,4.33
2018-06-20T19:33:37.629Z,4.25
2018-06-20T19:36:05.679Z,4.57
2018-06-20T19:38:33.582Z,4.95
2018-06-20T19:41:01.720Z,4.65
2018-06-20T19:43:29.731Z,4.30
2018-06-20T19:45:57.768Z,4.97
2018-06-20T19:48:25.981Z,5.33
2018-06-20T19:50:54.040Z,5.10
2018-06-20T19:53:22.212Z,5.50
2018-06-20T19:55:50.273Z,6.10
2018-06-20T19:58:18.355Z,5.60
2018-06-20T20:00:46.536Z,5.78
2018-06-20T20:03:14.638Z,5.92
2018-06-20T20:05:42.860Z,6.00
2018-06-20T20:08:11.077Z,6.05
2018-06-20T20:10:39.236Z,7.30
2018-06-20T20:13:07.316Z,5.97
2018-06-20T20:15:35.479Z,6.30
2018-06-20T20:18:03.546Z,7.05
2018-06-20T20:20:31.755Z,6.08
2018-06-20T20:22:59.816Z,6.30
2018-06-20T20:25:28.026Z,5.90
2018-06-20T20:27:56.102Z,7.10
2018-06-20T20:30:24.111Z,6.80
2018-06-20T20:32:52.326Z,6.40
2018-06-20T20:37:38.121Z,6.53
2018-06-20T20:40:06.372Z,7.20
2018-06-20T20:42:34.666Z,6.60
2018-06-20T20:45:02.840Z,7.92
2018-06-20T20:47:30.920Z,6.75
2018-06-20T20:49:58.964Z,6.90
2018-06-20T20:52:26.861Z,6.72
2018-06-20T20:54:55.066Z,6.50
2018-06-20T20:57:23.072Z,6.33
2018-06-20T20:59:50.875Z,6.67
2018-06-20T21:02:18.939Z,7.33
2018-06-20T21:04:47.034Z,6.17
2018-06-20T21:07:15.100Z,6.90
2018-06-20T21:09:43.149Z,7.20
2018-06-20T21:12:11.239Z,6.72
2018-06-20T21:14:39.285Z,6.70
2018-06-20T21:17:07.512Z,6.37
2018-06-20T21:19:35.536Z,6.75
2018-06-20T21:22:03.421Z,6.90
2018-06-20T21:24:31.475Z,7.20
2018-06-20T21:26:59.609Z,7.10
2018-06-20T21:29:27.618Z,6.60
2018-06-20T21:31:55.453Z,7.40
2018-06-20T21:34:23.588Z,7.60
2018-06-20T21:36:51.558Z,7.42
2018-06-20T21:39:19.647Z,6.90
2018-06-20T21:41:47.699Z,7.22
2018-06-20T21:44:15.781Z,7.50
2018-06-20T21:46:43.861Z,7.67
2018-06-20T21:49:12.004Z,7.45
2018-06-20T21:51:39.790Z,8.88
2018-06-20T21:54:08.000Z,7.22
2018-06-20T21:56:36.032Z,7.20
2018-06-20T21:59:04.115Z,7.47
2018-06-20T22:01:32.224Z,8.55
2018-06-20T22:04:00.236Z,8.10
2018-06-20T22:06:28.341Z,8.90
2018-06-20T22:08:56.404Z,8.10
2018-06-20T22:11:24.455Z,8.60
2018-06-20T22:13:52.243Z,8.00
2018-06-20T22:16:20.505Z,7.40
2018-06-20T22:18:48.603Z,7.30
2018-06-20T22:21:16.674Z,7.75
2018-06-20T22:23:44.745Z,8.20
2018-06-20T22:26:12.933Z,7.83
2018-06-20T22:28:41.092Z,8.28
2018-06-20T22:31:09.168Z,8.05
2018-06-20T22:33:37.259Z,8.20
2018-06-20T22:36:05.425Z,8.20
2018-06-20T22:38:33.526Z,8.35
2018-06-20T22:41:01.565Z,8.00
2018-06-20T22:43:29.761Z,7.62
2018-06-20T22:45:57.811Z,8.05
2018-06-20T22:48:25.889Z,8.58
2018-06-20T22:50:53.998Z,8.10
2018-06-20T22:53:22.019Z,8.30
2018-06-20T22:55:50.211Z,8.33
2018-06-20T22:58:18.294Z,8.45
2018-06-20T23:00:46.542Z,7.50
2018-06-20T23:03:14.854Z,8.58
2018-06-20T23:05:43.092Z,8.33
2018-06-20T23:08:10.986Z,8.83
2018-06-20T23:10:39.242Z,8.38
2018-06-20T23:13:07.455Z,8.60
2018-06-20T23:15:35.504Z,8.98
2018-06-20T23:18:03.934Z,8.70
2018-06-20T23:20:31.976Z,8.15
2018-06-20T23:23:00.070Z,8.90
2018-06-20T23:25:28.115Z,9.60
2018-06-20T23:27:56.183Z,9.05
2018-06-20T23:30:24.250Z,9.53
2018-06-20T23:32:52.415Z,9.33
2018-06-20T23:35:20.632Z,9.00
2018-06-20T23:37:48.656Z,9.13
2018-06-20T23:40:16.459Z,9.08
2018-06-20T23:42:44.524Z,8.27
2018-06-20T23:45:12.591Z,8.60
2018-06-20T23:47:40.663Z,8.23
2018-06-20T23:50:08.723Z,8.50
2018-06-20T23:52:36.807Z,8.53
2018-06-20T23:55:05.320Z,9.38
2018-06-20T23:57:33.878Z,9.13
